BLACK BUTTE (BLB)

Elevation: 426' · STONY CR basin · Operator: US Army Corps of Engineers

Provisional data, subject to change.
Query executed Wednesday at 17:54:18   clock

Select a sensor type for a plot of data.
Note: Reservoir Flows are daily averages.

Earlier

Date RES ELE    STORAGE    RES CHG    TOC STO    ABV TOC    OUTFLOW    INFLOW    PPT INC    TEMP MN    TEMP MX    EVP PAN   
 FEET   AF   AF   AF   AF   CFS   CFS   INCHES   DEG F   DEG F   INCHES  
06/28/2016 457.47 75410 -486 136200 -60790 215 3 0.00 22 40 0.34
06/29/2016 457.31 74894 -516 136200 -61306 240 14 0.08 23 39 0.35
06/30/2016 457.15 74379 -515 136200 -61821 237 13 0.00 23 41 0.34
07/01/2016 456.98 73835 -544 136200 -62365 241 1 0.00 24 38 0.33
07/02/2016 456.82 73324 -511 136200 -62876 237 12 0.00 20 36 0.32
07/03/2016 456.64 72753 -571 136200 -63447 249 -8 0.00 19 34 0.31
07/04/2016 456.46 72184 -569 136200 -64016 247 -11 0.00 19 33 0.29
07/05/2016 456.28 71618 -566 136200 -64582 266 10 0.00 17 32 0.29
07/06/2016 456.08 70992 -626 136200 -65208 281 -6 0.00 17 32 0.28
07/07/2016 455.90 70432 -560 136200 -65768 248 -4 0.00 17 32 0.30
07/08/2016 455.75 69967 -465 136200 -66233 207 -3 0.31 15 31 0.25
07/09/2016 455.61 69535 -432 136200 -66665 195 8 0.00 17 31 0.31
07/10/2016 455.44 69013 -522 136200 -67187 197 -40 0.00 14 31 0.27
07/11/2016 455.26 68462 -551 136200 -67738 224 -21 0.15 20 34 0.33
07/12/2016 455.10 67975 -487 136200 -68225 228 10 0.00 18 33 0.28
07/13/2016 454.92 67430 -545 136200 -68770 237 -7 0.06 21 38 0.31
07/14/2016 454.73 66858 -572 136200 -69342 253 -4 0.08 21 39 0.32
07/15/2016 454.51 66199 -659 136200 -70001 286 -13 0.08 22 37 0.34
07/16/2016 454.29 65545 -654 136200 -70655 298 -3 0.00 18 34 0.30
07/17/2016 454.08 64924 -621 136200 -71276 291 1 0.00 16 29 0.25
07/18/2016 453.86 64278 -646 136200 -71922 278 -28 0.00 14 29 0.20
07/19/2016 453.68 63753 -525 136200 -72447 233 -6 0.00 14 31 0.27
07/20/2016 453.51 63260 -493 136200 -72940 227 5 0.00 15 33 0.29
07/21/2016 453.32 62712 -548 136200 -73488 237 -11 0.00 16 33 0.30
07/22/2016 453.16 62253 -459 136200 -73947 200 -6 0.00 16 36 0.28
07/23/2016 452.99 61768 -485 136200 -74432 213 -2 0.00 23 42 0.32
07/24/2016 452.83 61313 -455 136200 -74887 216 15 0.03 20 38 0.31
07/25/2016 452.64 60777 -536 136200 -75423 218 -21 0.00 20 39 0.33
07/26/2016 452.45 60244 -533 136200 -75956 243 3 0.00 21 41 0.31
07/27/2016 -- -- -- -- -- -- -- -- -- -- --

Later | Latest

Warning! This data is preliminary and subject to revision.

Show BLB Map | Plot BLB Data | 1 Month BLB Data | Real-Time BLB Data | BLB Info